X  Cerrar Datos meteorológicos de aviación METAR     LIPX Verona-Villafranca Valerio Catullo Airport
Temperatura
15°C Temperatura
4°C Punto de rocío
48% Humedad



Viento
3 M/S
6 MPH
10 KM/H
5 NUDO



50°
NE
Condiciones actuales

Parcialmente nublado Parcialmente nublado
Presión 1008.81 (hPa) - 29.79 (inHg)
Visibilidad 6 (milla) - 9.7 (km)
Aeropuerto
Código de aeropuerto LIPX

localidad: Verona-Villafranca Valerio Catullo Airport
Distancia: 0 (km)

Metar:
LIPX 200950Z 05005KT 340V130 9999 FEW030 15/04 Q1009

Hora: 20-04-2024 09:50 CEST